Rickmers Seoul — V7EI5 — position and weather

sailwx.info

Track history (hours):
 
Tides and Currents Weather Stations Pressure Air Temp Water Temp Dewpoint Dewpoint Depression Visibility Wind Speed Wind Dir Waves Ship Positions

Rickmers Seoul

Last reported at 2017-Jan-09 19:09 UTC. Time now 2017-Jan-18 18:08 UTC.
Position N 31°05' E 122°26'.
Warning: this ship's position is 8 days out of date.

Length 192.9 m; beam 27.8 m; draft 11.2 m.

Type: Cargo ship. MMSI: 538001809.

Date/timePositionNaut miles runAvg speedWind from/ knotsBaromVisibWave heightAir tempDewpointWater temp
2017-Jan-09 19:09N 31°05' E 122°26'813.3
2017-Jan-09 18:32N 31°07' E 122°17'1414.3
2017-Jan-09 17:34N 31°14' E 122°03'1514.8
2017-Jan-09 16:33N 31°18' E 121°46'1212.0
2017-Jan-09 15:33N 31°24' E 121°34'1110.6
2017-Jan-09 14:33N 31°30' E 121°23'1 0.9
2017-Jan-09 13:30N 31°30' E 121°22'0 0.1
2017-Jan-09 12:30N 31°30' E 121°22'0 0.1
2017-Jan-09 11:30N 31°30' E 121°22'0 0.0
2017-Jan-09 10:33N 31°30' E 121°22'0 0.0
2017-Jan-09 09:33N 31°30' E 121°22'0 0.0
2017-Jan-09 08:30N 31°30' E 121°22'0 0.0
2017-Jan-09 07:30N 31°30' E 121°22'0 0.0
2017-Jan-09 06:30N 31°30' E 121°22'0 0.0
2017-Jan-09 05:30N 31°30' E 121°22'0 0.0
2017-Jan-09 04:30N 31°30' E 121°22'0 0.0
2017-Jan-09 03:30N 31°30' E 121°22'0 0.0
2017-Jan-09 02:30N 31°30' E 121°22'0 0.0
2017-Jan-09 01:30N 31°30' E 121°22'0 0.0
2017-Jan-09 00:30N 31°30' E 121°22'0 0.0
2017-Jan-08 23:30N 31°30' E 121°22'0 0.0
2017-Jan-08 22:30N 31°30' E 121°22'0 0.0
2017-Jan-08 21:30N 31°30' E 121°22'0 0.0
2017-Jan-08 20:30N 31°30' E 121°22'0 0.0
2017-Jan-08 19:30N 31°30' E 121°22'0 0.0
2017-Jan-08 18:24N 31°30' E 121°22'0 0.0
2017-Jan-08 17:24N 31°30' E 121°22'0 0.0
2017-Jan-08 16:18N 31°30' E 121°22'0 0.0
2017-Jan-08 15:33N 31°30' E 121°22'0 0.0
2017-Jan-08 14:30N 31°30' E 121°22'0 0.0
2017-Jan-08 13:33N 31°30' E 121°22'0 0.0
2017-Jan-08 12:24N 31°30' E 121°22'0 0.0
2017-Jan-08 11:30N 31°30' E 121°22'0 0.0
2017-Jan-08 10:24N 31°30' E 121°22'0 0.0
2017-Jan-08 09:33N 31°30' E 121°22'0 0.0
2017-Jan-08 08:27N 31°30' E 121°22'0 0.0
2017-Jan-08 07:24N 31°30' E 121°22'0 0.0
2017-Jan-08 06:33N 31°30' E 121°22'0 0.0
2017-Jan-08 05:24N 31°30' E 121°22'0 0.0
2017-Jan-08 04:30N 31°30' E 121°22'0 0.0
2017-Jan-08 03:30N 31°30' E 121°22'0 0.0
2017-Jan-08 02:30N 31°30' E 121°22'0 0.0
2017-Jan-08 01:30N 31°30' E 121°22'0 0.0
2017-Jan-08 00:30N 31°30' E 121°22'0 0.0
2017-Jan-07 23:30N 31°30' E 121°22'0 0.0
2017-Jan-07 22:30N 31°30' E 121°22'0 0.0
2017-Jan-07 21:30N 31°30' E 121°22'0 0.0
2017-Jan-07 20:30N 31°30' E 121°22'0 0.0
2017-Jan-07 19:30N 31°30' E 121°22'0 0.0
2017-Jan-07 18:33N 31°30' E 121°22'0 0.0
2017-Jan-07 17:33N 31°30' E 121°22'0 0.0
2017-Jan-07 16:33N 31°30' E 121°22'0 0.0
2017-Jan-07 15:30N 31°30' E 121°22'0 0.0
2017-Jan-07 14:30N 31°30' E 121°22'0 0.0
2017-Jan-07 13:18N 31°30' E 121°22'0 0.0
2017-Jan-07 12:30N 31°30' E 121°22'0 0.0
2017-Jan-07 11:30N 31°30' E 121°22'0 0.0
2017-Jan-07 10:24N 31°30' E 121°22'0 0.0
2017-Jan-07 09:33N 31°30' E 121°22'0 0.0
2017-Jan-07 08:30N 31°30' E 121°22'0 0.0
2017-Jan-07 07:33N 31°30' E 121°22'0 0.0
2017-Jan-07 06:27N 31°30' E 121°22'0 0.0
2017-Jan-07 05:30N 31°30' E 121°22'0 0.0
2017-Jan-07 04:30N 31°30' E 121°22'0 0.0
2017-Jan-07 03:24N 31°30' E 121°22'0 0.0
2017-Jan-07 02:30N 31°30' E 121°22'0 0.2
2017-Jan-07 01:33N 31°30' E 121°23'8 7.6
2017-Jan-07 00:33N 31°26' E 121°30'1111.2
2017-Jan-06 23:33N 31°20' E 121°41'10 9.8
2017-Jan-06 22:33N 31°16' E 121°52'1010.2
2017-Jan-06 21:33N 31°14' E 122°03'1313.3
2017-Jan-06 20:33N 31°07' E 122°17'9 9.5
2017-Jan-06 19:33N 31°08' E 122°28'8 7.9
2017-Jan-06 18:32N 31°14' E 122°34'2 0.0
2017-Jan-04 21:32N 31°14' E 122°36'0 0.0
2017-Jan-04 19:29N 31°14' E 122°36'0 0.0
2017-Jan-04 18:29N 31°14' E 122°36'0 0.0
2017-Jan-03 17:20N 31°14' E 122°36'0 0.0
2017-Jan-03 07:23N 31°14' E 122°36'0 0.1
2017-Jan-03 06:29N 31°14' E 122°36'0 0.0
2017-Jan-03 05:29N 31°14' E 122°36'2 0.1
2017-Jan-01 10:18N 31°15' E 122°39'38312.0
2016-Dec-31 02:20N 37°39' E 122°29'1012.8
2016-Dec-31 01:33N 37°44' E 122°19'1312.6
2016-Dec-31 00:33N 37°52' E 122°06'1412.4
2016-Dec-30 23:24N 38°00' E 121°51'2512.7
2016-Dec-30 21:23N 38°15' E 121°25'1112.8
2016-Dec-30 20:33N 38°22' E 121°15'1212.2
2016-Dec-30 19:33N 38°29' E 121°02'  
Track history (hours):
 
Tides and Currents Weather Stations Pressure Air Temp Water Temp Dewpoint Dewpoint Depression Visibility Wind Speed Wind Dir Waves Ship Positions

Rickmers Seoul

Last reported at 2017-Jan-09 19:09 UTC. Time now 2017-Jan-18 18:08 UTC.
Position N 31°05' E 122°26'.
Warning: this ship's position is 8 days out of date.

Length 192.9 m; beam 27.8 m; draft 11.2 m.

Type: Cargo ship. MMSI: 538001809.

Date/timePositionNaut miles runAvg speedWind from/ knotsBaromVisibWave heightAir tempDewpointWater temp
2017-Jan-09 19:09N 31°05' E 122°26'813.3
2017-Jan-09 18:32N 31°07' E 122°17'1414.3
2017-Jan-09 17:34N 31°14' E 122°03'1514.8
2017-Jan-09 16:33N 31°18' E 121°46'1212.0
2017-Jan-09 15:33N 31°24' E 121°34'1110.6
2017-Jan-09 14:33N 31°30' E 121°23'1 0.9
2017-Jan-09 13:30N 31°30' E 121°22'0 0.1
2017-Jan-09 12:30N 31°30' E 121°22'0 0.1
2017-Jan-09 11:30N 31°30' E 121°22'0 0.0
2017-Jan-09 10:33N 31°30' E 121°22'0 0.0
2017-Jan-09 09:33N 31°30' E 121°22'0 0.0
2017-Jan-09 08:30N 31°30' E 121°22'0 0.0
2017-Jan-09 07:30N 31°30' E 121°22'0 0.0
2017-Jan-09 06:30N 31°30' E 121°22'0 0.0
2017-Jan-09 05:30N 31°30' E 121°22'0 0.0
2017-Jan-09 04:30N 31°30' E 121°22'0 0.0
2017-Jan-09 03:30N 31°30' E 121°22'0 0.0
2017-Jan-09 02:30N 31°30' E 121°22'0 0.0
2017-Jan-09 01:30N 31°30' E 121°22'0 0.0
2017-Jan-09 00:30N 31°30' E 121°22'0 0.0
2017-Jan-08 23:30N 31°30' E 121°22'0 0.0
2017-Jan-08 22:30N 31°30' E 121°22'0 0.0
2017-Jan-08 21:30N 31°30' E 121°22'0 0.0
2017-Jan-08 20:30N 31°30' E 121°22'0 0.0
2017-Jan-08 19:30N 31°30' E 121°22'0 0.0
2017-Jan-08 18:24N 31°30' E 121°22'0 0.0
2017-Jan-08 17:24N 31°30' E 121°22'0 0.0
2017-Jan-08 16:18N 31°30' E 121°22'0 0.0
2017-Jan-08 15:33N 31°30' E 121°22'0 0.0
2017-Jan-08 14:30N 31°30' E 121°22'0 0.0
2017-Jan-08 13:33N 31°30' E 121°22'0 0.0
2017-Jan-08 12:24N 31°30' E 121°22'0 0.0
2017-Jan-08 11:30N 31°30' E 121°22'0 0.0
2017-Jan-08 10:24N 31°30' E 121°22'0 0.0
2017-Jan-08 09:33N 31°30' E 121°22'0 0.0
2017-Jan-08 08:27N 31°30' E 121°22'0 0.0
2017-Jan-08 07:24N 31°30' E 121°22'0 0.0
2017-Jan-08 06:33N 31°30' E 121°22'0 0.0
2017-Jan-08 05:24N 31°30' E 121°22'0 0.0
2017-Jan-08 04:30N 31°30' E 121°22'0 0.0
2017-Jan-08 03:30N 31°30' E 121°22'0 0.0
2017-Jan-08 02:30N 31°30' E 121°22'0 0.0
2017-Jan-08 01:30N 31°30' E 121°22'0 0.0
2017-Jan-08 00:30N 31°30' E 121°22'0 0.0
2017-Jan-07 23:30N 31°30' E 121°22'0 0.0
2017-Jan-07 22:30N 31°30' E 121°22'0 0.0
2017-Jan-07 21:30N 31°30' E 121°22'0 0.0
2017-Jan-07 20:30N 31°30' E 121°22'0 0.0
2017-Jan-07 19:30N 31°30' E 121°22'0 0.0
2017-Jan-07 18:33N 31°30' E 121°22'0 0.0
2017-Jan-07 17:33N 31°30' E 121°22'0 0.0
2017-Jan-07 16:33N 31°30' E 121°22'0 0.0
2017-Jan-07 15:30N 31°30' E 121°22'0 0.0
2017-Jan-07 14:30N 31°30' E 121°22'0 0.0
2017-Jan-07 13:18N 31°30' E 121°22'0 0.0
2017-Jan-07 12:30N 31°30' E 121°22'0 0.0
2017-Jan-07 11:30N 31°30' E 121°22'0 0.0
2017-Jan-07 10:24N 31°30' E 121°22'0 0.0
2017-Jan-07 09:33N 31°30' E 121°22'0 0.0
2017-Jan-07 08:30N 31°30' E 121°22'0 0.0
2017-Jan-07 07:33N 31°30' E 121°22'0 0.0
2017-Jan-07 06:27N 31°30' E 121°22'0 0.0
2017-Jan-07 05:30N 31°30' E 121°22'0 0.0
2017-Jan-07 04:30N 31°30' E 121°22'0 0.0
2017-Jan-07 03:24N 31°30' E 121°22'0 0.0
2017-Jan-07 02:30N 31°30' E 121°22'0 0.2
2017-Jan-07 01:33N 31°30' E 121°23'8 7.6
2017-Jan-07 00:33N 31°26' E 121°30'1111.2
2017-Jan-06 23:33N 31°20' E 121°41'10 9.8
2017-Jan-06 22:33N 31°16' E 121°52'1010.2
2017-Jan-06 21:33N 31°14' E 122°03'1313.3
2017-Jan-06 20:33N 31°07' E 122°17'9 9.5
2017-Jan-06 19:33N 31°08' E 122°28'8 7.9
2017-Jan-06 18:32N 31°14' E 122°34'2 0.0
2017-Jan-04 21:32N 31°14' E 122°36'0 0.0
2017-Jan-04 19:29N 31°14' E 122°36'0 0.0
2017-Jan-04 18:29N 31°14' E 122°36'0 0.0
2017-Jan-03 17:20N 31°14' E 122°36'0 0.0
2017-Jan-03 07:23N 31°14' E 122°36'0 0.1
2017-Jan-03 06:29N 31°14' E 122°36'0 0.0
2017-Jan-03 05:29N 31°14' E 122°36'2 0.1
2017-Jan-01 10:18N 31°15' E 122°39'38312.0
2016-Dec-31 02:20N 37°39' E 122°29'1012.8
2016-Dec-31 01:33N 37°44' E 122°19'1312.6
2016-Dec-31 00:33N 37°52' E 122°06'1412.4
2016-Dec-30 23:24N 38°00' E 121°51'2512.7
2016-Dec-30 21:23N 38°15' E 121°25'1112.8
2016-Dec-30 20:33N 38°22' E 121°15'1212.2
2016-Dec-30 19:33N 38°29' E 121°02'  

Dump ship's entire track history